createdAt,value
2022-08-18T00:02:29.997Z,99074.69
2022-08-18T00:05:00.263Z,99073.06
2022-08-18T00:07:30.538Z,99075.19
2022-08-18T00:09:59.462Z,99069.97
2022-08-18T00:12:39.847Z,99069.69
2022-08-18T00:15:11.063Z,99063.72
2022-08-18T00:17:38.782Z,99061.25
2022-08-18T00:20:10.123Z,99064.72
2022-08-18T00:22:39.902Z,99057.69
2022-08-18T00:25:12.204Z,99062.38
2022-08-18T00:27:41.415Z,99056.13
2022-08-18T00:30:12.688Z,99059.75
2022-08-18T00:32:43.152Z,99055.44
2022-08-18T00:35:15.115Z,99058.19
2022-08-18T00:37:43.144Z,99055.78
2022-08-18T00:40:14.241Z,99053.97
2022-08-18T00:42:54.207Z,99054.22
2022-08-18T00:45:27.310Z,99055.41
2022-08-18T00:47:55.317Z,99058.72
2022-08-18T00:50:29.081Z,99063.00
2022-08-18T00:53:03.641Z,99060.66
2022-08-18T00:55:31.252Z,99059.56
2022-08-18T00:58:04.077Z,99063.87
2022-08-18T01:00:33.131Z,99066.88
2022-08-18T01:03:04.290Z,99059.94
2022-08-18T01:05:43.342Z,99061.75
2022-08-18T01:08:14.437Z,99067.34
2022-08-18T01:10:42.765Z,99068.47
2022-08-18T01:13:10.689Z,99077.03
2022-08-18T01:15:38.232Z,99077.50
2022-08-18T01:18:31.196Z,99074.41
2022-08-18T01:21:29.329Z,99083.97
2022-08-18T01:23:57.668Z,99083.12
2022-08-18T01:26:27.008Z,99088.75
2022-08-18T01:28:54.518Z,99091.50
2022-08-18T01:31:37.636Z,99083.88
2022-08-18T01:34:10.279Z,99081.72
2022-08-18T01:36:40.623Z,99078.13
2022-08-18T01:39:11.114Z,99080.63
2022-08-18T01:41:40.499Z,99085.13
2022-08-18T01:44:11.256Z,99094.22
2022-08-18T01:46:41.612Z,99082.38
2022-08-18T01:49:10.007Z,99090.25
2022-08-18T01:51:40.565Z,99091.59
2022-08-18T01:54:11.308Z,99096.94
2022-08-18T01:56:39.027Z,99098.00
2022-08-18T01:59:10.434Z,99099.09
2022-08-18T02:01:45.293Z,99097.62
2022-08-18T02:04:34.367Z,99094.91
2022-08-18T02:07:04.436Z,99088.69
2022-08-18T02:09:32.442Z,99094.19
2022-08-18T02:12:01.974Z,99084.63
2022-08-18T02:14:31.350Z,99085.00
2022-08-18T02:17:02.659Z,99086.78
2022-08-18T02:19:47.338Z,99095.00
2022-08-18T02:22:18.550Z,99087.81
2022-08-18T02:24:46.819Z,99092.13
2022-08-18T02:27:15.187Z,99088.16
2022-08-18T02:29:43.046Z,99100.41
2022-08-18T02:32:10.745Z,99101.75
2022-08-18T02:34:38.311Z,99101.09
2022-08-18T02:37:06.082Z,99097.47
2022-08-18T02:39:35.397Z,99095.81
2022-08-18T02:42:03.098Z,99095.81
2022-08-18T02:44:32.074Z,99100.13
2022-08-18T02:46:59.769Z,99100.00
2022-08-18T02:49:27.774Z,99106.06
2022-08-18T02:51:55.509Z,99100.31
2022-08-18T02:54:24.263Z,99101.66
2022-08-18T02:56:52.785Z,99102.97
2022-08-18T02:59:24.254Z,99104.41
2022-08-18T03:01:53.849Z,99110.47
2022-08-18T03:04:29.532Z,99118.16
2022-08-18T03:07:00.834Z,99119.47
2022-08-18T03:09:30.021Z,99120.25
2022-08-18T03:11:58.286Z,99122.69
2022-08-18T03:14:26.078Z,99111.41
2022-08-18T03:16:55.281Z,99116.44
2022-08-18T03:19:28.690Z,99123.06
2022-08-18T03:22:03.223Z,99122.28
2022-08-18T03:24:32.494Z,99122.28
2022-08-18T03:27:03.406Z,99117.50
2022-08-18T03:29:32.689Z,99119.72
2022-08-18T03:32:02.214Z,99116.87
2022-08-18T03:34:30.251Z,99119.25
2022-08-18T03:36:58.175Z,99124.44
2022-08-18T03:39:28.032Z,99120.25
2022-08-18T03:42:00.190Z,99111.25
2022-08-18T03:44:32.139Z,99107.63
2022-08-18T03:47:01.582Z,99115.06
2022-08-18T03:49:29.492Z,99122.38
2022-08-18T03:52:00.154Z,99116.31
2022-08-18T03:54:29.840Z,99115.13
2022-08-18T03:56:57.688Z,99109.03
2022-08-18T03:59:27.058Z,99114.16
2022-08-18T04:01:55.281Z,99124.97
2022-08-18T04:04:25.930Z,99123.91
2022-08-18T04:06:58.443Z,99117.34
2022-08-18T04:09:28.507Z,99115.47
2022-08-18T04:11:57.024Z,99121.41
2022-08-18T04:14:29.926Z,99125.06
2022-08-18T04:16:58.439Z,99125.72
2022-08-18T04:19:27.661Z,99122.69
2022-08-18T04:21:57.640Z,99119.47
2022-08-18T04:24:28.133Z,99115.78
2022-08-18T04:26:59.750Z,99112.31
2022-08-18T04:29:28.693Z,99104.50
2022-08-18T04:31:56.387Z,99122.03
2022-08-18T04:34:23.887Z,99121.59
2022-08-18T04:36:54.945Z,99115.22
2022-08-18T04:39:23.707Z,99110.72
2022-08-18T04:41:51.891Z,99108.22
2022-08-18T04:44:20.115Z,99119.00
2022-08-18T04:46:51.899Z,99121.62
2022-08-18T04:49:21.967Z,99118.78
2022-08-18T04:52:40.158Z,99125.97
2022-08-18T04:55:10.503Z,99123.69
2022-08-18T04:57:38.965Z,99126.66
2022-08-18T05:00:07.495Z,99121.84
2022-08-18T05:02:35.465Z,99126.75
2022-08-18T05:05:04.080Z,99120.75
2022-08-18T05:07:32.069Z,99115.41
2022-08-18T05:09:59.878Z,99120.25
2022-08-18T05:12:28.385Z,99112.34
2022-08-18T05:14:57.449Z,99108.34
2022-08-18T05:17:30.052Z,99105.19
2022-08-18T05:20:01.574Z,99104.47
2022-08-18T05:22:40.796Z,99110.00
2022-08-18T05:25:10.508Z,99113.38
2022-08-18T05:27:43.161Z,99120.62
2022-08-18T05:30:11.510Z,99119.59
2022-08-18T05:32:48.501Z,99118.34
2022-08-18T05:35:38.332Z,99119.34
2022-08-18T05:38:19.275Z,99116.56
2022-08-18T05:41:07.952Z,99122.66
2022-08-18T05:43:51.965Z,99124.00
2022-08-18T05:46:26.704Z,99123.59
2022-08-18T05:48:54.432Z,99116.47
2022-08-18T05:51:28.400Z,99119.06
2022-08-18T05:54:14.826Z,99120.22
2022-08-18T05:56:48.512Z,99118.47
2022-08-18T05:59:20.792Z,99123.72
2022-08-18T06:01:53.413Z,99125.75
2022-08-18T06:04:39.074Z,99120.03
2022-08-18T06:07:10.917Z,99130.16
2022-08-18T06:09:40.674Z,99126.28
2022-08-18T06:12:33.539Z,99135.88
2022-08-18T06:15:28.626Z,99137.13
2022-08-18T06:18:01.974Z,99137.41
2022-08-18T06:20:51.817Z,99135.91
2022-08-18T06:23:28.152Z,99129.91
2022-08-18T06:26:16.997Z,99130.78
2022-08-18T06:28:52.874Z,99132.72
2022-08-18T06:31:40.846Z,99135.34
2022-08-18T06:34:27.007Z,99140.66
2022-08-18T06:37:27.794Z,99128.88
2022-08-18T06:39:57.173Z,99133.22
2022-08-18T06:42:30.550Z,99129.28
2022-08-18T06:45:05.844Z,99146.28
2022-08-18T06:47:41.286Z,99139.97
2022-08-18T06:50:19.354Z,99134.78
2022-08-18T06:52:59.838Z,99141.09
2022-08-18T06:55:42.604Z,99129.47
2022-08-18T06:58:13.667Z,99116.66
2022-08-18T07:00:56.329Z,99122.59
2022-08-18T07:03:36.510Z,99113.72
2022-08-18T07:06:08.142Z,99112.81
2022-08-18T07:08:42.657Z,99111.66
2022-08-18T07:11:31.647Z,99113.44
2022-08-18T07:14:23.396Z,99123.06
2022-08-18T07:16:59.861Z,99127.38
2022-08-18T07:19:30.643Z,99119.97
2022-08-18T07:22:18.524Z,99114.00
2022-08-18T07:24:51.462Z,99116.87
2022-08-18T07:27:21.311Z,99119.28
2022-08-18T07:30:15.948Z,99122.47
2022-08-18T07:33:05.165Z,99111.38
2022-08-18T07:35:43.448Z,99112.47
2022-08-18T07:38:41.350Z,99103.88
2022-08-18T07:41:15.356Z,99111.81
2022-08-18T07:43:51.296Z,99111.75
2022-08-18T07:46:39.420Z,99115.78
2022-08-18T07:49:07.141Z,99114.88
2022-08-18T07:51:45.457Z,99123.06
2022-08-18T07:54:49.813Z,99131.50
2022-08-18T07:57:28.803Z,99137.78
2022-08-18T08:00:18.753Z,99142.28
2022-08-18T08:03:12.864Z,99140.06
2022-08-18T08:05:49.326Z,99147.31
2022-08-18T08:08:32.009Z,99148.75
2022-08-18T08:11:20.994Z,99163.16
2022-08-18T08:14:10.473Z,99168.59
2022-08-18T08:16:41.443Z,99166.56
2022-08-18T08:19:59.986Z,99170.75
2022-08-18T08:22:32.099Z,99174.09
2022-08-18T08:25:22.353Z,99177.87
2022-08-18T08:28:14.577Z,99174.56
2022-08-18T08:31:33.261Z,99168.06
2022-08-18T08:34:15.668Z,99173.34
2022-08-18T08:36:46.439Z,99159.22
2022-08-18T08:39:34.578Z,99163.50
2022-08-18T08:42:30.571Z,99161.41
2022-08-18T08:45:00.893Z,99153.22
2022-08-18T08:47:33.220Z,99150.28
2022-08-18T08:50:13.503Z,99146.91
2022-08-18T08:52:57.141Z,99138.22
2022-08-18T08:55:42.315Z,99138.03
2022-08-18T08:58:17.017Z,99137.63
2022-08-18T09:00:44.390Z,99138.06
2022-08-18T09:03:47.317Z,99133.38
2022-08-18T09:06:17.842Z,99138.34
2022-08-18T09:09:24.321Z,99136.53
2022-08-18T09:11:57.710Z,99135.19
2022-08-18T09:14:47.170Z,99127.16
2022-08-18T09:17:40.913Z,99128.66
2022-08-18T09:20:27.283Z,99130.91
2022-08-18T09:23:03.918Z,99124.28
2022-08-18T09:25:46.936Z,99125.13
2022-08-18T09:28:20.324Z,99123.50
2022-08-18T09:31:13.627Z,99128.72
2022-08-18T09:36:48.302Z,99128.22
2022-08-18T09:39:37.605Z,99116.81
2022-08-18T09:42:12.918Z,99111.56
2022-08-18T09:44:46.383Z,99105.75
2022-08-18T09:47:27.396Z,99104.34
2022-08-18T09:50:26.654Z,99096.53
2022-08-18T09:53:04.421Z,99083.19
2022-08-18T09:55:32.049Z,99071.56
2022-08-18T09:58:18.237Z,99070.81
2022-08-18T10:00:45.986Z,99070.25
2022-08-18T10:03:25.856Z,99068.34
2022-08-18T10:06:07.322Z,99064.75
2022-08-18T10:09:18.178Z,99055.19
2022-08-18T10:12:27.254Z,99057.00
2022-08-18T10:15:27.203Z,99056.19
2022-08-18T10:18:17.207Z,99056.84
2022-08-18T10:21:09.325Z,99063.34
2022-08-18T10:23:49.437Z,99063.91
2022-08-18T10:26:31.910Z,99060.38
2022-08-18T10:29:08.002Z,99055.69
2022-08-18T10:31:58.609Z,99054.13
2022-08-18T10:34:37.757Z,99055.41
2022-08-18T10:40:13.585Z,99051.94
2022-08-18T10:42:49.814Z,99047.75
2022-08-18T10:45:30.846Z,99050.28
2022-08-18T10:48:26.703Z,99049.84
2022-08-18T10:51:09.037Z,99040.91
2022-08-18T10:54:01.890Z,99035.97
2022-08-18T10:56:36.647Z,99034.94
2022-08-18T10:59:28.263Z,99041.81
2022-08-18T11:02:11.521Z,99049.75
2022-08-18T11:04:58.583Z,99036.69
2022-08-18T11:07:30.989Z,99035.25
2022-08-18T11:13:29.232Z,99026.69
2022-08-18T11:16:10.393Z,99032.97
2022-08-18T11:18:44.199Z,99029.91
2022-08-18T11:21:30.636Z,99028.13
2022-08-18T11:24:05.360Z,99022.53
2022-08-18T11:26:38.854Z,99026.44
2022-08-18T11:29:42.415Z,99023.09
2022-08-18T11:32:25.209Z,99013.50
2022-08-18T11:35:19.841Z,99010.91
2022-08-18T11:38:04.908Z,99008.34
2022-08-18T11:41:10.746Z,99002.41
2022-08-18T11:43:41.045Z,98986.87
2022-08-18T11:46:31.165Z,98985.31
2022-08-18T11:49:01.393Z,98991.31
2022-08-18T11:51:33.380Z,98990.41
2022-08-18T11:54:24.335Z,98990.50
2022-08-18T11:56:52.219Z,98989.34
2022-08-18T11:59:53.860Z,98984.78
2022-08-18T12:02:18.390Z,98971.34
2022-08-18T12:04:50.790Z,98971.37
2022-08-18T12:07:35.505Z,98971.50
2022-08-18T12:10:28.847Z,98962.31
2022-08-18T12:13:00.809Z,98971.19
2022-08-18T12:15:43.765Z,98960.94
2022-08-18T12:21:06.196Z,98950.47
2022-08-18T12:23:38.591Z,98952.09
2022-08-18T12:29:01.345Z,98932.09
2022-08-18T12:34:24.907Z,98929.25
2022-08-18T12:37:00.884Z,98925.63
2022-08-18T12:39:29.276Z,98932.88
2022-08-18T12:41:57.642Z,98948.41
2022-08-18T12:44:27.657Z,98938.78
2022-08-18T12:46:56.024Z,98935.38
2022-08-18T12:49:25.385Z,98939.16
2022-08-18T12:51:57.528Z,98946.78
2022-08-18T12:54:26.274Z,98952.34
2022-08-18T12:56:56.019Z,98950.59
2022-08-18T12:59:24.565Z,98958.88
2022-08-18T13:01:58.629Z,98964.25
2022-08-18T13:04:28.068Z,98958.66
2022-08-18T13:07:04.708Z,98962.81
2022-08-18T13:09:52.592Z,98967.25
2022-08-18T13:12:24.004Z,98964.81
2022-08-18T13:14:55.236Z,98961.56
2022-08-18T13:17:33.172Z,98959.81
2022-08-18T13:20:09.442Z,98961.25
2022-08-18T13:22:40.556Z,98962.41
2022-08-18T13:25:13.293Z,98961.16
2022-08-18T13:28:02.021Z,98966.13
2022-08-18T13:30:32.432Z,98962.53
2022-08-18T13:33:05.455Z,98958.25
2022-08-18T13:35:54.456Z,98963.00
2022-08-18T13:38:26.090Z,98950.81
2022-08-18T13:40:59.039Z,98946.16
2022-08-18T13:43:34.472Z,98953.09
2022-08-18T13:46:04.022Z,98958.69
2022-08-18T13:48:32.963Z,98957.22
2022-08-18T13:51:02.062Z,98965.59
2022-08-18T13:53:31.528Z,98963.41
2022-08-18T13:55:59.863Z,98950.41
2022-08-18T13:58:28.769Z,98953.19
2022-08-18T14:01:15.901Z,98954.69
2022-08-18T14:03:47.876Z,98957.03
2022-08-18T14:06:22.027Z,98960.34
2022-08-18T14:08:53.143Z,98963.63
2022-08-18T14:11:27.427Z,98969.12
2022-08-18T14:14:01.900Z,98967.47
2022-08-18T14:16:29.963Z,98970.97
2022-08-18T14:19:17.806Z,98972.31
2022-08-18T14:22:07.571Z,98966.53
2022-08-18T14:25:00.657Z,98981.72
2022-08-18T14:27:35.155Z,98974.31
2022-08-18T14:30:08.771Z,98973.78
2022-08-18T14:32:37.129Z,98973.72
2022-08-18T14:35:33.919Z,98977.16
2022-08-18T14:38:09.855Z,98967.66
2022-08-18T14:40:43.022Z,98975.50
2022-08-18T14:43:17.044Z,98970.25
2022-08-18T14:45:49.176Z,98976.34
2022-08-18T14:48:21.851Z,98976.19
2022-08-18T14:50:52.559Z,98967.31
2022-08-18T14:53:22.763Z,98972.91
2022-08-18T14:55:52.684Z,98963.97
2022-08-18T14:58:28.704Z,98961.78
2022-08-18T15:00:58.101Z,98955.84
2022-08-18T15:03:31.574Z,98952.03
2022-08-18T15:06:04.720Z,98952.31
2022-08-18T15:08:35.377Z,98961.66
2022-08-18T15:11:11.308Z,98953.91
2022-08-18T15:13:42.354Z,98949.44
2022-08-18T15:16:13.545Z,98946.06
2022-08-18T15:18:42.455Z,98957.00
2022-08-18T15:21:38.279Z,98945.41
2022-08-18T15:24:26.699Z,98957.50
2022-08-18T15:26:56.696Z,98949.72
2022-08-18T15:29:31.059Z,98947.06
2022-08-18T15:32:05.069Z,98955.75
2022-08-18T15:34:47.361Z,98960.12
2022-08-18T15:37:24.102Z,98961.72
2022-08-18T15:40:35.911Z,98971.78
2022-08-18T15:43:10.257Z,98964.03
2022-08-18T15:45:56.538Z,98968.59
2022-08-18T15:48:27.245Z,98966.41
2022-08-18T15:50:56.384Z,98953.94
2022-08-18T15:53:29.709Z,98940.50
2022-08-18T15:55:58.169Z,98942.13
2022-08-18T15:58:31.620Z,98948.84
2022-08-18T16:00:59.411Z,98938.41
2022-08-18T16:03:29.206Z,98932.81
2022-08-18T16:05:58.678Z,98936.72
2022-08-18T16:08:27.780Z,98943.03
2022-08-18T16:10:55.839Z,98936.97
2022-08-18T16:13:26.323Z,98938.31
2022-08-18T16:15:54.251Z,98938.12
2022-08-18T16:18:21.784Z,98946.09
2022-08-18T16:20:50.549Z,98949.69
2022-08-18T16:23:20.546Z,98938.84
2022-08-18T16:25:48.068Z,98938.75
2022-08-18T16:28:15.634Z,98937.69
2022-08-18T16:30:43.436Z,98935.72
2022-08-18T16:33:11.110Z,98933.66
2022-08-18T16:35:38.783Z,98929.66
2022-08-18T16:38:08.902Z,98939.97
2022-08-18T16:40:37.569Z,98935.63
2022-08-18T16:43:07.297Z,98938.94
2022-08-18T16:45:37.542Z,98929.94
2022-08-18T16:48:08.290Z,98926.94
2022-08-18T16:50:42.459Z,98933.03
2022-08-18T16:53:10.166Z,98924.97
2022-08-18T16:55:37.984Z,98919.59
2022-08-18T16:58:24.521Z,98922.94
2022-08-18T17:01:15.655Z,98919.31
2022-08-18T17:04:13.630Z,98919.41
2022-08-18T17:06:49.577Z,98904.22
2022-08-18T17:09:18.386Z,98912.41
2022-08-18T17:11:50.475Z,98908.84
2022-08-18T17:14:24.680Z,98903.87
2022-08-18T17:16:55.069Z,98898.13
2022-08-18T17:19:27.006Z,98901.25
2022-08-18T17:21:54.678Z,98893.19
2022-08-18T17:24:31.495Z,98882.34
2022-08-18T17:27:12.210Z,98879.06
2022-08-18T17:29:53.639Z,98869.94
2022-08-18T17:32:28.342Z,98861.16
2022-08-18T17:35:06.566Z,98847.81
2022-08-18T17:37:36.926Z,98846.94
2022-08-18T17:40:15.255Z,98856.53
2022-08-18T17:42:43.314Z,98862.41
2022-08-18T17:45:13.862Z,98861.97
2022-08-18T17:48:04.766Z,98874.81
2022-08-18T17:50:53.925Z,98867.00
2022-08-18T17:53:22.550Z,98877.38
2022-08-18T17:55:59.687Z,98886.66
2022-08-18T17:58:34.045Z,98878.09
2022-08-18T18:01:03.452Z,98873.41
2022-08-18T18:03:31.434Z,98883.34
2022-08-18T18:06:09.259Z,98876.69
2022-08-18T18:09:07.974Z,98885.09
2022-08-18T18:11:38.988Z,98906.06
2022-08-18T18:14:34.019Z,98904.00
2022-08-18T18:17:30.431Z,98901.03
2022-08-18T18:20:38.029Z,98901.03
2022-08-18T18:23:15.907Z,98907.00
2022-08-18T18:25:43.893Z,98917.50
2022-08-18T18:28:33.869Z,98920.31
2022-08-18T18:31:25.173Z,98919.22
2022-08-18T18:33:58.361Z,98932.94
2022-08-18T18:36:35.705Z,98922.22
2022-08-18T18:39:15.504Z,98926.19
2022-08-18T18:41:43.612Z,98921.78
2022-08-18T18:44:13.336Z,98926.56
2022-08-18T18:46:44.324Z,98923.63
2022-08-18T18:49:29.218Z,98928.16
2022-08-18T18:52:15.878Z,98931.09
2022-08-18T18:55:01.443Z,98928.84
2022-08-18T18:58:22.875Z,98932.47
2022-08-18T19:00:55.811Z,98932.22
2022-08-18T19:03:53.888Z,98923.38
2022-08-18T19:06:44.028Z,98926.41
2022-08-18T19:09:38.973Z,98916.19
2022-08-18T19:12:35.164Z,98921.47
2022-08-18T19:15:08.992Z,98919.50
2022-08-18T19:17:42.583Z,98925.63
2022-08-18T19:20:13.006Z,98922.03
2022-08-18T19:22:59.170Z,98926.47
2022-08-18T19:25:33.106Z,98922.31
2022-08-18T19:28:13.046Z,98917.06
2022-08-18T19:30:43.802Z,98920.09
2022-08-18T19:33:15.789Z,98912.63
2022-08-18T19:36:10.823Z,98914.84
2022-08-18T19:39:11.804Z,98909.03
2022-08-18T19:42:02.030Z,98919.00
2022-08-18T19:44:32.463Z,98915.09
2022-08-18T19:47:08.957Z,98915.69
2022-08-18T19:49:48.481Z,98919.25
2022-08-18T19:53:01.522Z,98918.41
2022-08-18T19:55:56.004Z,98928.94
2022-08-18T19:58:32.628Z,98918.91
2022-08-18T20:01:02.920Z,98914.28
2022-08-18T20:03:43.054Z,98924.72
2022-08-18T20:06:35.897Z,98931.44
2022-08-18T20:09:22.381Z,98925.63
2022-08-18T20:12:04.709Z,98930.84
2022-08-18T20:14:35.747Z,98928.91
2022-08-18T20:17:09.524Z,98934.19
2022-08-18T20:19:45.229Z,98923.41
2022-08-18T20:22:24.898Z,98926.44
2022-08-18T20:25:07.306Z,98932.25
2022-08-18T20:27:49.424Z,98933.09
2022-08-18T20:30:19.917Z,98930.06
2022-08-18T20:33:10.966Z,98931.16
2022-08-18T20:36:02.397Z,98916.75
2022-08-18T20:38:57.474Z,98922.31
2022-08-18T20:41:34.133Z,98929.25
2022-08-18T20:44:29.873Z,98923.41
2022-08-18T20:47:44.230Z,98923.06
2022-08-18T20:50:31.661Z,98930.22
2022-08-18T20:53:32.882Z,98930.53
2022-08-18T20:56:32.257Z,98938.03
2022-08-18T20:59:23.450Z,98949.59
2022-08-18T21:01:55.607Z,98959.63
2022-08-18T21:04:49.022Z,98967.72
2022-08-18T21:07:19.070Z,98971.31
2022-08-18T21:10:36.947Z,98967.72
2022-08-18T21:13:05.707Z,98979.59
2022-08-18T21:15:37.083Z,98978.75
2022-08-18T21:18:19.644Z,98984.00
2022-08-18T21:20:48.846Z,98987.34
2022-08-18T21:23:33.637Z,98986.75
2022-08-18T21:26:11.285Z,98985.94
2022-08-18T21:28:40.341Z,98984.75
2022-08-18T21:31:42.510Z,98992.53
2022-08-18T21:34:33.298Z,98991.38
2022-08-18T21:37:07.954Z,99008.28
2022-08-18T21:39:47.775Z,99003.84
2022-08-18T21:42:44.862Z,99018.53
2022-08-18T21:45:21.909Z,99013.31
2022-08-18T21:47:53.306Z,99017.75
2022-08-18T21:50:26.935Z,99016.66
2022-08-18T21:53:00.489Z,99018.56
2022-08-18T21:55:33.267Z,99020.53
2022-08-18T21:58:10.235Z,99027.19
2022-08-18T22:00:43.351Z,99030.69
2022-08-18T22:03:13.960Z,99029.66
2022-08-18T22:05:58.142Z,99034.09
2022-08-18T22:08:32.225Z,99031.81
2022-08-18T22:11:57.228Z,99036.41
2022-08-18T22:14:23.914Z,99041.81
2022-08-18T22:17:31.726Z,99054.53
2022-08-18T22:20:32.573Z,99057.03
2022-08-18T22:23:24.236Z,99059.28
2022-08-18T22:25:52.387Z,99060.62
2022-08-18T22:28:24.414Z,99062.53
2022-08-18T22:30:55.172Z,99069.44
2022-08-18T22:33:23.506Z,99062.25
2022-08-18T22:35:57.941Z,99067.25
2022-08-18T22:38:26.652Z,99067.78
2022-08-18T22:40:54.141Z,99069.97
2022-08-18T22:43:21.988Z,99063.63
2022-08-18T22:45:49.737Z,99067.19
2022-08-18T22:48:17.362Z,99062.75
2022-08-18T22:50:46.303Z,99067.16
2022-08-18T22:53:14.413Z,99068.50
2022-08-18T22:55:42.002Z,99064.56
2022-08-18T22:58:09.969Z,99067.41
2022-08-18T23:00:39.201Z,99070.97
2022-08-18T23:03:09.841Z,99068.44
2022-08-18T23:05:37.479Z,99062.91
2022-08-18T23:08:05.639Z,99064.50
2022-08-18T23:10:33.215Z,99061.22
2022-08-18T23:13:04.199Z,99059.19
2022-08-18T23:15:47.698Z,99046.28
2022-08-18T23:18:19.146Z,99034.22
2022-08-18T23:20:48.821Z,99048.03
2022-08-18T23:23:18.142Z,99036.91
2022-08-18T23:25:45.749Z,99033.50
2022-08-18T23:28:13.617Z,99033.19
2022-08-18T23:30:41.187Z,99022.47
2022-08-18T23:33:10.485Z,99028.50
2022-08-18T23:35:38.550Z,99027.63
2022-08-18T23:38:08.803Z,99020.50
2022-08-18T23:40:37.561Z,99012.56
2022-08-18T23:43:06.835Z,99018.31
2022-08-18T23:45:35.861Z,99020.59
2022-08-18T23:48:03.821Z,99018.56
2022-08-18T23:50:32.868Z,99020.78
2022-08-18T23:53:02.830Z,99014.16
2022-08-18T23:55:30.511Z,99018.37
2022-08-18T23:57:58.378Z,99022.75
